Time;durP1;ratioP1;P1;durP2;ratioP2;P2;SDS_P1;SDS_P2;PMS_P1;PMS_P2;Temp;Humidity;BMP_temperature;BMP_pressure;BME280_temperature;BME280_humidity;BME280_pressure;Samples;Min_cycle;Max_cycle;Signal;HPM_P1;HPM_P2
2024/02/21 00:02:20;;;;;;;;;;;;;;;4.31;100.00;97475.28;5106969;28;20005;-79
2024/02/21 00:04:46;;;;;;;;;;;;;;;4.30;100.00;97470.22;5107266;28;19938;-79
2024/02/21 00:07:12;;;;;;;;;;;;;;;4.29;100.00;97476.41;5106915;28;19966;-70
2024/02/21 00:09:38;;;;;;;;;;;;;;;4.30;100.00;97483.22;5106775;28;19953;-70
2024/02/21 00:12:05;;;;;;;;;;;;;;;4.29;100.00;97476.41;5107342;28;19942;-70
2024/02/21 00:14:31;;;;;;;;;;;;;;;4.24;100.00;97477.66;5106293;28;19937;-70
2024/02/21 00:16:56;;;;;;;;;;;;;;;4.24;100.00;97475.06;5106737;28;19956;-70
2024/02/21 00:19:22;;;;;;;;;;;;;;;4.24;100.00;97469.03;5106590;28;19990;-71
2024/02/21 00:21:48;;;;;;;;;;;;;;;4.24;100.00;97469.03;5106670;28;20123;-76
2024/02/21 00:24:14;;;;;;;;;;;;;;;4.23;100.00;97462.22;5106622;28;19932;-71
2024/02/21 00:26:40;;;;;;;;;;;;;;;4.23;100.00;97452.66;5107329;28;20109;-71
2024/02/21 00:29:06;;;;;;;;;;;;;;;4.24;100.00;97443.91;5106514;28;19989;-70
2024/02/21 00:31:31;;;;;;;;;;;;;;;4.27;100.00;97442.78;5106439;28;19934;-70
2024/02/21 00:33:57;;;;;;;;;;;;;;;4.28;100.00;97441.81;5088733;28;19966;-70
2024/02/21 00:36:23;;;;;;;;;;;;;;;4.28;100.00;97449.59;5106387;28;19929;-71
2024/02/21 00:38:49;;;;;;;;;;;;;;;4.27;100.00;97445.38;5106235;28;19956;-74
2024/02/21 00:41:15;;;;;;;;;;;;;;;4.31;100.00;97453.69;5088238;28;19938;-75
2024/02/21 00:43:41;;;;;;;;;;;;;;;4.31;100.00;97445.91;5088231;28;20279;-70
2024/02/21 00:46:07;;;;;;;;;;;;;;;4.27;100.00;97443.59;5088287;28;19998;-69
2024/02/21 00:48:34;;;;;;;;;;;;;;;4.27;100.00;97447.97;5106103;28;19955;-69
2024/02/21 00:50:59;;;;;;;;;;;;;;;4.29;100.00;97445.22;5106422;28;19935;-68
2024/02/21 00:53:25;;;;;;;;;;;;;;;4.24;100.00;97443.91;5105992;28;19942;-70
2024/02/21 00:55:51;;;;;;;;;;;;;;;4.17;100.00;97444.66;5105978;28;19928;-68
2024/02/21 00:58:17;;;;;;;;;;;;;;;4.11;100.00;97440.06;5105733;28;19969;-72
2024/02/21 01:00:43;;;;;;;;;;;;;;;4.11;100.00;97442.69;5105901;28;20249;-68
2024/02/21 01:03:09;;;;;;;;;;;;;;;4.11;100.00;97442.69;5105840;28;19934;-68
2024/02/21 01:05:34;;;;;;;;;;;;;;;4.09;100.00;97436.81;5105767;28;20246;-68
2024/02/21 01:08:00;;;;;;;;;;;;;;;4.08;100.00;97433.41;5105642;28;19960;-68
2024/02/21 01:10:26;;;;;;;;;;;;;;;4.05;100.00;97431.09;5106434;28;20238;-69
2024/02/21 01:12:52;;;;;;;;;;;;;;;4.03;100.00;97422.66;5106168;28;19985;-69
2024/02/21 01:15:18;;;;;;;;;;;;;;;3.98;100.00;97417.13;5106400;28;20222;-68
2024/02/21 01:17:43;;;;;;;;;;;;;;;4.00;100.00;97410.00;5105453;28;19967;-71
2024/02/21 01:20:10;;;;;;;;;;;;;;;4.02;100.00;97411.47;5105510;28;19935;-70
2024/02/21 01:22:35;;;;;;;;;;;;;;;4.03;100.00;97407.09;5105404;28;19935;-71
2024/02/21 01:25:01;;;;;;;;;;;;;;;4.03;100.00;97402.72;5105444;28;19964;-70
2024/02/21 01:27:27;;;;;;;;;;;;;;;4.03;100.00;97396.69;5104513;28;19942;-71
2024/02/21 01:29:53;;;;;;;;;;;;;;;4.02;100.00;97388.09;5105295;28;20007;-71
2024/02/21 01:32:19;;;;;;;;;;;;;;;3.99;100.00;97387.59;5105276;28;19965;-70
2024/02/21 01:34:44;;;;;;;;;;;;;;;3.99;100.00;97385.00;5105206;28;19933;-80
2024/02/21 01:37:10;;;;;;;;;;;;;;;3.95;100.00;97379.31;5105741;28;19982;-76
2024/02/21 01:39:36;;;;;;;;;;;;;;;3.93;100.00;97372.66;5105818;28;19953;-78
2024/02/21 01:42:02;;;;;;;;;;;;;;;3.93;100.00;97372.66;5105045;28;19940;-77
2024/02/21 01:44:28;;;;;;;;;;;;;;;3.92;100.00;97365.81;5105011;28;19933;-78
2024/02/21 01:46:54;;;;;;;;;;;;;;;3.91;100.00;97372.00;5104982;28;20130;-77
2024/02/21 01:49:20;;;;;;;;;;;;;;;3.90;100.00;97367.75;5105767;28;19933;-77
2024/02/21 01:51:47;;;;;;;;;;;;;;;3.91;100.00;97372.00;5103962;28;19946;-77
2024/02/21 01:54:13;;;;;;;;;;;;;;;3.89;100.00;97369.53;5104912;28;20219;-77
2024/02/21 01:56:39;;;;;;;;;;;;;;;3.88;100.00;97354.94;5104750;28;19942;-76
2024/02/21 01:59:05;;;;;;;;;;;;;;;3.86;100.00;97352.50;5104531;28;19964;-76
2024/02/21 02:01:31;;;;;;;;;;;;;;;3.86;100.00;97342.13;5104661;28;19985;-76
2024/02/21 02:03:59;;;;;;;;;;;;;;;3.85;100.00;97344.88;5104702;28;19942;-75
2024/02/21 02:06:24;;;;;;;;;;;;;;;3.84;100.00;97331.09;5104613;28;19935;-76
2024/02/21 02:08:50;;;;;;;;;;;;;;;3.83;100.00;97331.22;5104562;28;20135;-76
2024/02/21 02:11:16;;;;;;;;;;;;;;;3.84;100.00;97327.66;5104612;28;19942;-70
2024/02/21 02:13:42;;;;;;;;;;;;;;;3.83;100.00;97328.63;5105335;28;19936;-68
2024/02/21 02:16:08;;;;;;;;;;;;;;;3.81;100.00;97309.81;5104551;28;19936;-68
2024/02/21 02:18:34;;;;;;;;;;;;;;;3.81;100.00;97330.56;5104660;28;19957;-67
2024/02/21 02:21:00;;;;;;;;;;;;;;;3.78;100.00;97310.09;5104416;28;19938;-68
2024/02/21 02:23:32;;;;;;;;;;;;;;;3.76;100.00;97310.28;5104342;28;19942;-68
2024/02/21 02:25:58;;;;;;;;;;;;;;;3.80;100.00;97310.78;5104607;28;19933;-68
2024/02/21 02:28:24;;;;;;;;;;;;;;;3.82;100.00;97306.25;5086258;28;20196;-70
2024/02/21 02:30:50;;;;;;;;;;;;;;;3.82;100.00;97299.28;5086817;28;19934;-70
2024/02/21 02:33:19;;;;;;;;;;;;;;;3.83;100.00;97305.28;5104256;28;19942;-68
2024/02/21 02:35:45;;;;;;;;;;;;;;;3.84;100.00;97297.34;5104225;28;19933;-69
2024/02/21 02:38:14;;;;;;;;;;;;;;;3.83;100.00;97298.31;5103936;28;19955;-69
2024/02/21 02:40:41;;;;;;;;;;;;;;;3.82;100.00;97293.25;5104145;28;19937;-69
2024/02/21 02:43:07;;;;;;;;;;;;;;;3.85;100.00;97291.19;5104619;28;20214;-69
2024/02/21 02:45:33;;;;;;;;;;;;;;;3.86;100.00;97284.22;5104589;28;19940;-69
2024/02/21 02:47:59;;;;;;;;;;;;;;;3.81;100.00;97271.69;5104074;28;19948;-73
2024/02/21 02:50:25;;;;;;;;;;;;;;;3.76;100.00;97278.31;5104080;28;20121;-81
2024/02/21 02:52:52;;;;;;;;;;;;;;;3.71;100.00;97265.00;5104243;28;20120;-70
2024/02/21 02:55:18;;;;;;;;;;;;;;;3.72;100.00;97264.06;5103267;28;19959;-70
2024/02/21 02:57:44;;;;;;;;;;;;;;;3.72;100.00;97272.63;5085785;28;19963;-71
2024/02/21 03:00:10;;;;;;;;;;;;;;;3.75;100.00;97261.13;5104482;28;19962;-69
2024/02/21 03:02:38;;;;;;;;;;;;;;;3.76;100.00;97254.97;5104704;28;20098;-70
2024/02/21 03:05:11;;;;;;;;;;;;;;;3.78;100.00;97261.66;5104424;28;19942;-70
2024/02/21 03:07:36;;;;;;;;;;;;;;;3.82;100.00;97259.53;5104664;28;19943;-69
2024/02/21 03:10:02;;;;;;;;;;;;;;;3.88;100.00;97256.31;5104133;28;19939;-75
2024/02/21 03:12:29;;;;;;;;;;;;;;;3.89;100.00;97245.00;5104362;28;19939;-76
2024/02/21 03:14:55;;;;;;;;;;;;;;;3.88;100.00;97240.75;5104089;28;19937;-75
2024/02/21 03:17:21;;;;;;;;;;;;;;;3.85;100.00;97236.69;5104326;28;19940;-75
2024/02/21 03:19:48;;;;;;;;;;;;;;;3.86;100.00;97229.72;5103687;28;19958;-75
2024/02/21 03:22:14;;;;;;;;;;;;;;;3.90;100.00;97236.22;5103746;28;19939;-75
2024/02/21 03:24:40;;;;;;;;;;;;;;;3.93;100.00;97243.72;5103961;28;20015;-69
2024/02/21 03:27:06;;;;;;;;;;;;;;;3.98;100.00;97230.25;5103792;28;19946;-69
2024/02/21 03:29:31;;;;;;;;;;;;;;;4.01;100.00;97217.78;5104482;28;19961;-68
2024/02/21 03:31:57;;;;;;;;;;;;;;;4.04;100.00;97224.44;5103708;28;20225;-68
2024/02/21 03:34:23;;;;;;;;;;;;;;;4.05;100.00;97211.31;5103638;28;19934;-68
2024/02/21 03:36:49;;;;;;;;;;;;;;;4.05;100.00;97210.47;5103611;28;19941;-68
2024/02/21 03:39:15;;;;;;;;;;;;;;;4.03;100.00;97218.44;5103787;28;19950;-68
2024/02/21 03:41:40;;;;;;;;;;;;;;;4.04;100.00;97214.88;5104364;28;19936;-67
2024/02/21 03:44:06;;;;;;;;;;;;;;;4.04;100.00;97206.28;5103561;28;19940;-75
2024/02/21 03:46:32;;;;;;;;;;;;;;;4.03;100.00;97208.06;5104077;28;20224;-74
2024/02/21 03:48:58;;;;;;;;;;;;;;;4.02;100.00;97201.22;5103514;28;20296;-74
2024/02/21 03:51:24;;;;;;;;;;;;;;;4.02;100.00;97205.63;5107093;28;19959;-74
2024/02/21 03:53:49;;;;;;;;;;;;;;;4.01;100.00;97203.97;5107161;28;20005;-74
2024/02/21 03:56:15;;;;;;;;;;;;;;;4.00;100.00;97194.59;5107140;28;19927;-74
2024/02/21 03:58:41;;;;;;;;;;;;;;;3.96;100.00;97199.25;5107035;28;19963;-74
2024/02/21 04:01:07;;;;;;;;;;;;;;;3.90;100.00;97194.69;5107907;28;19940;-71
2024/02/21 04:03:33;;;;;;;;;;;;;;;3.90;100.00;97188.72;5107053;28;19996;-75
2024/02/21 04:06:00;;;;;;;;;;;;;;;3.90;100.00;97189.50;5107013;28;19945;-75
2024/02/21 04:08:26;;;;;;;;;;;;;;;3.91;100.00;97180.78;5106908;28;20118;-76
2024/02/21 04:10:51;;;;;;;;;;;;;;;3.93;100.00;97188.41;5088725;28;19941;-74
2024/02/21 04:13:17;;;;;;;;;;;;;;;3.92;100.00;97178.97;5106857;28;20279;-74
2024/02/21 04:15:43;;;;;;;;;;;;;;;3.89;100.00;97172.34;5107342;28;19938;-73
2024/02/21 04:18:09;;;;;;;;;;;;;;;3.85;100.00;97178.81;5106750;28;19932;-74
2024/02/21 04:20:35;;;;;;;;;;;;;;;3.78;100.00;97172.59;5107463;28;20132;-71
2024/02/21 04:23:01;;;;;;;;;;;;;;;3.75;100.00;97167.75;5107228;28;19937;-81
2024/02/21 04:25:27;;;;;;;;;;;;;;;3.71;100.00;97171.63;5106572;28;20224;-81
2024/02/21 04:27:53;;;;;;;;;;;;;;;3.71;100.00;97169.81;5107350;28;19977;-80
2024/02/21 04:30:19;;;;;;;;;;;;;;;3.72;100.00;97174.06;5107026;28;19948;-81
2024/02/21 04:32:45;;;;;;;;;;;;;;;3.71;100.00;97161.25;5106417;28;19932;-80
2024/02/21 04:35:10;;;;;;;;;;;;;;;3.67;100.00;97171.09;5106418;28;19932;-79
2024/02/21 04:37:36;;;;;;;;;;;;;;;3.64;100.00;97166.25;5106414;28;19937;-80
2024/02/21 04:40:02;;;;;;;;;;;;;;;3.62;100.00;97165.59;5106289;28;19947;-69
2024/02/21 04:42:28;;;;;;;;;;;;;;;3.63;100.00;97167.19;5106237;28;20048;-77
2024/02/21 04:44:54;;;;;;;;;;;;;;;3.66;100.00;97169.50;5106238;28;19943;-77
2024/02/21 04:47:20;;;;;;;;;;;;;;;3.62;100.00;97161.22;5106189;28;19941;-77
2024/02/21 04:49:46;;;;;;;;;;;;;;;3.61;100.00;97159.59;5106145;28;19930;-76
2024/02/21 04:52:12;;;;;;;;;;;;;;;3.57;100.00;97160.88;5106101;28;19949;-75
2024/02/21 04:54:38;;;;;;;;;;;;;;;3.56;100.00;97164.41;5106818;28;19996;-74
2024/02/21 04:57:04;;;;;;;;;;;;;;;3.54;100.00;97148.19;5105883;28;19934;-71
2024/02/21 04:59:30;;;;;;;;;;;;;;;3.56;100.00;97161.84;5105837;28;19949;-67
2024/02/21 05:01:56;;;;;;;;;;;;;;;3.59;100.00;97160.69;5104662;28;20226;-67
2024/02/21 05:04:21;;;;;;;;;;;;;;;3.57;100.00;97152.25;5105744;28;19970;-67
2024/02/21 05:06:47;;;;;;;;;;;;;;;3.57;100.00;97157.44;5106344;28;19931;-67
2024/02/21 05:09:13;;;;;;;;;;;;;;;3.59;100.00;97160.69;5105894;28;19947;-67
2024/02/21 05:11:39;;;;;;;;;;;;;;;3.58;100.00;97172.84;5105690;28;19927;-67
2024/02/21 05:14:05;;;;;;;;;;;;;;;3.59;100.00;97171.06;5106179;28;19998;-67
2024/02/21 05:16:31;;;;;;;;;;;;;;;3.56;100.00;97161.84;5106152;28;20020;-75
2024/02/21 05:18:57;;;;;;;;;;;;;;;3.55;100.00;97149.00;5105528;28;19953;-71
2024/02/21 05:21:26;;;;;;;;;;;;;;;3.51;100.00;97137.31;5087386;28;20010;-70
2024/02/21 05:23:52;;;;;;;;;;;;;;;3.51;100.00;97139.91;5105430;28;19936;-70
2024/02/21 05:26:22;;;;;;;;;;;;;;;3.50;100.00;97130.53;5105967;28;20007;-71
2024/02/21 05:28:48;;;;;;;;;;;;;;;3.50;100.00;97128.75;5105318;28;19931;-71
2024/02/21 05:31:15;;;;;;;;;;;;;;;3.52;100.00;97123.41;5105304;28;19938;-71
2024/02/21 05:33:41;;;;;;;;;;;;;;;3.51;100.00;97112.22;5105308;28;20203;-82
2024/02/21 05:36:07;;;;;;;;;;;;;;;3.53;100.00;97119.81;5105267;28;20069;-79
2024/02/21 05:38:33;;;;;;;;;;;;;;;3.51;100.00;97112.22;5105082;28;19999;-81
2024/02/21 05:40:59;;;;;;;;;;;;;;;3.51;100.00;97103.59;5087843;28;19961;-78
2024/02/21 05:43:25;;;;;;;;;;;;;;;3.51;100.00;97109.63;5105099;28;20223;-79
2024/02/21 05:45:50;;;;;;;;;;;;;;;3.50;100.00;97109.78;5105046;28;20014;-78
2024/02/21 05:48:16;;;;;;;;;;;;;;;3.47;100.00;97103.13;5105515;28;19931;-78
2024/02/21 05:50:42;;;;;;;;;;;;;;;3.47;100.00;97099.72;5104968;28;19936;-78
2024/02/21 05:53:10;;;;;;;;;;;;;;;3.46;100.00;97104.09;5105793;28;19942;-69
2024/02/21 05:55:35;;;;;;;;;;;;;;;3.45;100.00;97105.88;5104900;28;19937;-71
2024/02/21 05:58:02;;;;;;;;;;;;;;;3.45;100.00;97110.25;5069883;28;19977;-71
2024/02/21 06:00:28;;;;;;;;;;;;;;;3.44;100.00;97109.44;5104709;28;19974;-71
2024/02/21 06:02:54;;;;;;;;;;;;;;;3.42;100.00;97102.78;5104760;28;19936;-70
2024/02/21 06:05:20;;;;;;;;;;;;;;;3.40;100.00;97096.94;5104686;28;19934;-71
2024/02/21 06:07:45;;;;;;;;;;;;;;;3.40;100.00;97096.94;5104577;28;20001;-71
2024/02/21 06:10:11;;;;;;;;;;;;;;;3.38;100.00;97091.09;5104660;28;19983;-76
2024/02/21 06:12:37;;;;;;;;;;;;;;;3.38;100.00;97086.75;5104179;28;20074;-70
2024/02/21 06:15:03;;;;;;;;;;;;;;;3.38;100.00;97084.16;5104527;28;20001;-71
2024/02/21 06:17:29;;;;;;;;;;;;;;;3.40;100.00;97091.75;5104459;28;20222;-72
2024/02/21 06:19:55;;;;;;;;;;;;;;;3.38;100.00;97091.09;5104353;28;19960;-71
2024/02/21 06:22:21;;;;;;;;;;;;;;;3.35;100.00;97094.81;5104943;28;19939;-71
2024/02/21 06:24:46;;;;;;;;;;;;;;;3.32;100.00;97095.13;5104345;28;19946;-72
2024/02/21 06:27:14;;;;;;;;;;;;;;;3.29;100.00;97098.03;5105000;28;19987;-72
2024/02/21 06:29:40;;;;;;;;;;;;;;;3.25;100.00;97096.72;5104325;28;20213;-76
2024/02/21 06:32:06;;;;;;;;;;;;;;;3.24;100.00;97095.09;5105087;28;20002;-75
2024/02/21 06:34:32;;;;;;;;;;;;;;;3.25;100.00;97096.72;5104252;28;19942;-74
2024/02/21 06:36:58;;;;;;;;;;;;;;;3.28;100.00;97103.38;5104221;28;19935;-75
2024/02/21 06:39:23;;;;;;;;;;;;;;;3.30;100.00;97101.41;5104882;28;20218;-74
2024/02/21 06:41:50;;;;;;;;;;;;;;;3.33;100.00;97103.72;5104704;28;19943;-75
2024/02/21 06:44:16;;;;;;;;;;;;;;;3.36;100.00;97095.63;5104145;28;20106;-75
2024/02/21 06:46:42;;;;;;;;;;;;;;;3.41;100.00;97090.78;5104098;28;19939;-71
2024/02/21 06:49:08;;;;;;;;;;;;;;;3.48;100.00;97094.38;5104893;28;19941;-70
2024/02/21 06:51:34;;;;;;;;;;;;;;;3.69;100.00;97087.97;5104071;28;19965;-67
2024/02/21 06:54:00;;;;;;;;;;;;;;;4.03;100.00;97077.47;5104550;28;19944;-67
2024/02/21 06:56:28;;;;;;;;;;;;;;;4.34;100.00;97056.06;5104807;28;20200;-68
2024/02/21 06:58:55;;;;;;;;;;;;;;;4.49;100.00;97057.00;5103769;28;19965;-68
2024/02/21 07:01:20;;;;;;;;;;;;;;;4.47;100.00;97057.19;5103985;28;19941;-68
2024/02/21 07:03:46;;;;;;;;;;;;;;;4.54;100.00;97051.34;5104067;28;19943;-68
2024/02/21 07:06:12;;;;;;;;;;;;;;;4.60;100.00;97048.91;5103947;28;19937;-74
2024/02/21 07:08:38;;;;;;;;;;;;;;;4.78;100.00;97050.47;5103457;28;19954;-79
2024/02/21 07:11:05;;;;;;;;;;;;;;;5.05;100.00;97057.06;5104044;28;19985;-80
2024/02/21 07:13:32;;;;;;;;;;;;;;;5.33;100.00;97028.81;5104379;28;19940;-81
2024/02/21 07:15:57;;;;;;;;;;;;;;;5.43;100.00;97028.63;5103834;28;20236;-80
2024/02/21 07:18:25;;;;;;;;;;;;;;;5.57;100.00;97025.28;5103828;28;19933;-79
2024/02/21 07:20:51;;;;;;;;;;;;;;;5.77;100.00;97030.84;5103694;28;19950;-81
2024/02/21 07:23:17;;;;;;;;;;;;;;;5.89;100.00;97018.25;5103837;28;19936;-68
2024/02/21 07:25:43;;;;;;;;;;;;;;;5.92;100.00;97010.09;5106421;28;19943;-71
2024/02/21 07:28:09;;;;;;;;;;;;;;;5.90;100.00;97014.69;5107646;28;19939;-71
2024/02/21 07:30:35;;;;;;;;;;;;;;;5.83;100.00;97005.94;5107676;28;20003;-71
2024/02/21 07:33:01;;;;;;;;;;;;;;;5.68;100.00;97011.88;5107821;28;20266;-71
2024/02/21 07:35:26;;;;;;;;;;;;;;;5.70;100.00;97004.72;5107554;28;19942;-71
2024/02/21 07:37:52;;;;;;;;;;;;;;;5.89;100.00;97006.03;5107521;28;19948;-71
2024/02/21 07:40:18;;;;;;;;;;;;;;;6.16;100.00;96988.28;5107378;28;19958;-71
2024/02/21 07:42:44;;;;;;;;;;;;;;;6.30;100.00;96982.31;5090041;28;19948;-68
2024/02/21 07:45:10;;;;;;;;;;;;;;;6.47;100.00;96963.91;5107492;28;19942;-77
2024/02/21 07:47:36;;;;;;;;;;;;;;;6.61;100.00;96963.09;5107346;28;19940;-77
2024/02/21 07:50:05;;;;;;;;;;;;;;;6.78;100.00;96957.69;5107331;28;20155;-77
2024/02/21 07:52:31;;;;;;;;;;;;;;;6.76;100.00;96957.06;5107280;28;19943;-76
2024/02/21 07:54:57;;;;;;;;;;;;;;;6.71;100.00;96957.63;5107293;28;19944;-76
2024/02/21 07:57:23;;;;;;;;;;;;;;;6.67;100.00;96961.56;5107535;28;19977;-76
2024/02/21 07:59:49;;;;;;;;;;;;;;;6.63;100.00;96979.34;5107080;28;19961;-76
2024/02/21 08:02:15;;;;;;;;;;;;;;;6.55;100.00;96956.00;5107928;28;19968;-70
2024/02/21 08:04:41;;;;;;;;;;;;;;;6.47;100.00;96967.31;5107234;28;19930;-76
2024/02/21 08:07:07;;;;;;;;;;;;;;;6.34;100.00;96955.88;5106988;28;19947;-76
2024/02/21 08:09:33;;;;;;;;;;;;;;;6.20;100.00;96971.34;5106869;28;19999;-77
2024/02/21 08:11:59;;;;;;;;;;;;;;;6.15;100.00;96996.28;5106936;28;19943;-76
2024/02/21 08:14:25;;;;;;;;;;;;;;;6.16;100.00;96980.47;5106840;28;19934;-76
2024/02/21 08:16:53;;;;;;;;;;;;;;;6.09;100.00;96974.38;5089476;28;20009;-76
2024/02/21 08:19:19;;;;;;;;;;;;;;;6.10;100.00;96981.19;5107247;28;20124;-73
2024/02/21 08:21:48;;;;;;;;;;;;;;;6.12;100.00;96986.22;5106720;28;20217;-67
2024/02/21 08:24:17;;;;;;;;;;;;;;;6.19;100.00;96980.13;5089240;28;19934;-73
2024/02/21 08:26:44;;;;;;;;;;;;;;;6.26;100.00;96983.66;5106642;28;19941;-74
2024/02/21 08:29:11;;;;;;;;;;;;;;;6.34;100.00;96977.56;5106621;28;19940;-73
2024/02/21 08:31:37;;;;;;;;;;;;;;;6.34;100.00;96956.72;5107303;28;19935;-73
2024/02/21 08:34:03;;;;;;;;;;;;;;;6.33;100.00;96946.47;5106439;28;20010;-74
2024/02/21 08:36:30;;;;;;;;;;;;;;;6.39;100.00;96953.56;5106089;28;19940;-74
2024/02/21 08:38:56;;;;;;;;;;;;;;;6.39;100.00;96936.13;5106702;28;19960;-83
2024/02/21 08:41:23;;;;;;;;;;;;;;;6.38;100.00;96952.75;5106830;28;19948;-76
2024/02/21 08:43:53;;;;;;;;;;;;;;;6.37;100.00;96932.91;5106285;28;19945;-77
2024/02/21 08:46:20;;;;;;;;;;;;;;;6.35;100.00;96954.91;5106529;28;19935;-76
2024/02/21 08:48:46;;;;;;;;;;;;;;;6.37;100.00;96953.75;5106157;28;20241;-76
2024/02/21 08:51:12;;;;;;;;;;;;;;;6.41;100.00;96949.00;5106660;28;20095;-76
2024/02/21 08:53:38;;;;;;;;;;;;;;;6.46;100.00;96950.06;5106576;28;19938;-77
2024/02/21 08:56:05;;;;;;;;;;;;;;;6.52;100.00;96948.53;5106085;28;19941;-76
2024/02/21 08:58:31;;;;;;;;;;;;;;;6.57;100.00;96934.97;5105850;28;20133;-69
2024/02/21 09:00:56;;;;;;;;;;;;;;;6.59;100.00;96919.97;5106999;28;20005;-73
2024/02/21 09:03:22;;;;;;;;;;;;;;;6.57;100.00;96920.13;5105909;28;19972;-74
2024/02/21 09:05:48;;;;;;;;;;;;;;;6.56;100.00;96921.13;5087783;28;20012;-74
2024/02/21 09:08:14;;;;;;;;;;;;;;;6.59;100.00;96909.53;5105719;28;20011;-73
2024/02/21 09:10:40;;;;;;;;;;;;;;;6.60;100.00;96898.13;5105787;28;19974;-73
2024/02/21 09:13:07;;;;;;;;;;;;;;;6.64;100.00;96888.97;5105742;28;19941;-74
2024/02/21 09:15:33;;;;;;;;;;;;;;;6.69;100.00;96892.63;5106475;28;19932;-70
2024/02/21 09:17:59;;;;;;;;;;;;;;;6.68;100.00;96883.19;5105737;28;19943;-73
2024/02/21 09:20:25;;;;;;;;;;;;;;;6.75;100.00;96880.66;5106332;28;20142;-74
2024/02/21 09:22:52;;;;;;;;;;;;;;;6.84;100.00;96884.78;5105767;28;19945;-74
2024/02/21 09:25:18;;;;;;;;;;;;;;;6.96;100.00;96868.69;5105480;28;20045;-74
2024/02/21 09:27:45;;;;;;;;;;;;;;;7.12;100.00;96884.09;5105356;28;19938;-74
2024/02/21 09:30:11;;;;;;;;;;;;;;;7.32;100.00;96859.00;5105321;28;19939;-74
2024/02/21 09:32:37;;;;;;;;;;;;;;;7.58;100.00;96870.69;5105344;28;20114;-76
2024/02/21 09:35:05;;;;;;;;;;;;;;;7.73;100.00;96845.28;5105885;28;19934;-71
2024/02/21 09:37:31;;;;;;;;;;;;;;;7.96;100.00;96843.41;5066581;28;19940;-76
2024/02/21 09:39:57;;;;;;;;;;;;;;;8.13;100.00;96844.75;5083355;28;19950;-76
2024/02/21 09:42:28;;;;;;;;;;;;;;;8.37;100.00;96827.78;5083328;28;19938;-77
2024/02/21 09:44:54;;;;;;;;;;;;;;;8.58;100.00;96819.03;5082992;28;19945;-77
2024/02/21 09:47:20;;;;;;;;;;;;;;;8.82;100.00;96790.75;5083155;28;20214;-76
2024/02/21 09:49:47;;;;;;;;;;;;;;;8.98;100.00;96813.94;5082974;28;20232;-77
2024/02/21 09:52:14;;;;;;;;;;;;;;;9.18;100.00;96781.78;5083084;28;19940;-71
2024/02/21 09:54:44;;;;;;;;;;;;;;;9.22;100.00;96775.09;5082850;28;19945;-67
2024/02/21 09:57:10;;;;;;;;;;;;;;;9.17;100.00;96778.31;5082989;28;19939;-67
2024/02/21 09:59:37;;;;;;;;;;;;;;;9.28;100.00;96769.91;5083462;28;19946;-67
2024/02/21 10:02:03;;;;;;;;;;;;;;;9.48;100.00;96793.44;5082701;28;19944;-67
2024/02/21 10:04:30;;;;;;;;;;;;;;;9.68;98.98;96759.41;5083176;28;20007;-66
2024/02/21 10:06:56;;;;;;;;;;;;;;;9.62;95.82;96726.16;5082545;28;19937;-67
2024/02/21 10:09:29;;;;;;;;;;;;;;;9.59;97.35;96734.41;5101020;28;20023;-76
2024/02/21 10:12:19;;;;;;;;;;;;;;;9.61;93.98;96724.53;5104493;28;20134;-76
2024/02/21 10:14:44;;;;;;;;;;;;;;;9.64;99.71;96758.19;5104487;28;19941;-77
2024/02/21 10:17:16;;;;;;;;;;;;;;;9.58;91.41;96703.22;5104531;28;19939;-77
2024/02/21 10:19:41;;;;;;;;;;;;;;;9.45;90.62;96683.91;5104992;28;20219;-77
2024/02/21 10:22:08;;;;;;;;;;;;;;;9.47;94.77;96705.44;5104436;28;19950;-76
2024/02/21 10:24:34;;;;;;;;;;;;;;;9.60;91.50;96688.91;5104919;28;20212;-77
2024/02/21 10:27:04;;;;;;;;;;;;;;;9.73;91.54;96693.31;5104400;28;20000;-77
2024/02/21 10:29:32;;;;;;;;;;;;;;;9.87;84.97;96652.97;5104386;28;19963;-80
2024/02/21 10:32:11;;;;;;;;;;;;;;;9.95;89.81;96670.25;5104347;28;19936;-77
2024/02/21 10:34:38;;;;;;;;;;;;;;;10.07;90.78;96684.31;5104762;28;20096;-77
2024/02/21 10:37:04;;;;;;;;;;;;;;;10.28;90.68;96685.81;5087027;28;19938;-77
2024/02/21 10:39:34;;;;;;;;;;;;;;;10.39;84.26;96629.31;5104197;28;19941;-76
2024/02/21 10:42:03;;;;;;;;;;;;;;;10.42;85.00;96626.28;5104184;28;19941;-76
2024/02/21 10:44:31;;;;;;;;;;;;;;;10.49;87.95;96655.06;5104219;28;19948;-76
2024/02/21 10:46:57;;;;;;;;;;;;;;;10.44;86.66;96641.81;5104131;28;19935;-74
2024/02/21 10:49:28;;;;;;;;;;;;;;;10.44;85.77;96639.19;5104135;28;20254;-76
2024/02/21 10:52:09;;;;;;;;;;;;;;;10.41;90.41;96650.88;5104864;28;19939;-77
2024/02/21 10:54:37;;;;;;;;;;;;;;;10.38;87.68;96624.31;5104846;28;19933;-77
2024/02/21 10:57:04;;;;;;;;;;;;;;;10.31;85.20;96621.69;5103914;28;20126;-77
2024/02/21 10:59:31;;;;;;;;;;;;;;;10.34;85.74;96614.22;5106461;28;19948;-77
2024/02/21 11:01:57;;;;;;;;;;;;;;;10.41;87.86;96627.28;5108211;28;20152;-77
2024/02/21 11:04:24;;;;;;;;;;;;;;;10.45;84.65;96602.25;5108161;28;19934;-77
2024/02/21 11:06:50;;;;;;;;;;;;;;;10.50;84.60;96591.94;5108222;28;19943;-68
2024/02/21 11:09:16;;;;;;;;;;;;;;;10.56;86.38;96598.13;5107984;28;19970;-68
2024/02/21 11:11:43;;;;;;;;;;;;;;;10.57;88.28;96612.88;5108149;28;19992;-67
2024/02/21 11:14:09;;;;;;;;;;;;;;;10.48;83.51;96580.88;5108519;28;19943;-67
2024/02/21 11:16:35;;;;;;;;;;;;;;;10.42;81.85;96573.06;5107793;28;19941;-68
2024/02/21 11:19:05;;;;;;;;;;;;;;;10.43;84.01;96577.25;5107905;28;19994;-68
2024/02/21 11:21:35;;;;;;;;;;;;;;;10.40;85.64;96561.97;5107805;28;19958;-68
2024/02/21 11:24:02;;;;;;;;;;;;;;;10.39;84.21;96571.63;5107844;28;19942;-80
2024/02/21 11:26:28;;;;;;;;;;;;;;;10.34;85.27;96561.00;5107818;28;19934;-77
2024/02/21 11:29:00;;;;;;;;;;;;;;;10.27;84.11;96552.38;5107777;28;19936;-77
2024/02/21 11:31:29;;;;;;;;;;;;;;;10.29;86.92;96574.75;5089613;28;19947;-77
2024/02/21 11:33:57;;;;;;;;;;;;;;;10.36;82.28;96540.63;5107693;28;20224;-77
2024/02/21 11:36:26;;;;;;;;;;;;;;;10.39;83.79;96555.91;5090193;28;19950;-76
2024/02/21 11:38:55;;;;;;;;;;;;;;;10.49;86.67;96552.81;5108399;28;20128;-77
2024/02/21 11:41:21;;;;;;;;;;;;;;;10.58;90.90;96564.63;5107739;28;19954;-67
2024/02/21 11:43:51;;;;;;;;;;;;;;;10.56;87.62;96550.94;5107522;28;19940;-68
2024/02/21 11:46:17;;;;;;;;;;;;;;;10.57;83.47;96531.56;5107402;28;19935;-74
2024/02/21 11:48:49;;;;;;;;;;;;;;;10.70;88.10;96547.19;5107382;28;20134;-74
2024/02/21 11:51:24;;;;;;;;;;;;;;;10.83;89.88;96542.84;5107678;28;20224;-74
2024/02/21 11:53:51;;;;;;;;;;;;;;;10.93;83.96;96511.66;5107283;28;20142;-74
2024/02/21 11:56:17;;;;;;;;;;;;;;;10.97;81.91;96494.44;5107257;28;19940;-74
2024/02/21 11:58:43;;;;;;;;;;;;;;;10.86;83.91;96501.22;5107078;28;20179;-74
2024/02/21 12:01:09;;;;;;;;;;;;;;;10.86;86.54;96514.34;5107084;28;19963;-70
2024/02/21 12:03:35;;;;;;;;;;;;;;;10.93;84.17;96495.91;5107873;28;20215;-71
2024/02/21 12:06:03;;;;;;;;;;;;;;;11.03;84.83;96490.16;5107059;28;19934;-71
2024/02/21 12:08:42;;;;;;;;;;;;;;;11.06;83.92;96484.47;5106990;28;19955;-70
2024/02/21 12:11:21;;;;;;;;;;;;;;;11.10;79.67;96457.56;5105866;28;19992;-71
2024/02/21 12:13:58;;;;;;;;;;;;;;;11.14;82.29;96463.16;5064963;28;20277;-71
2024/02/21 12:16:24;;;;;;;;;;;;;;;11.28;84.31;96469.06;5065053;28;19939;-70
2024/02/21 12:18:52;;;;;;;;;;;;;;;11.36;79.60;96435.44;5064828;28;19944;-77
2024/02/21 12:21:18;;;;;;;;;;;;;;;11.39;82.79;96452.56;5064562;28;19963;-75
2024/02/21 12:23:44;;;;;;;;;;;;;;;11.39;83.02;96447.31;5064791;28;19933;-76
2024/02/21 12:26:10;;;;;;;;;;;;;;;11.45;84.87;96453.50;5064689;28;19940;-76
2024/02/21 12:28:36;;;;;;;;;;;;;;;11.48;83.24;96435.44;5065311;28;19942;-77
2024/02/21 12:31:03;;;;;;;;;;;;;;;11.43;81.26;96427.44;5064539;28;19994;-76
2024/02/21 12:33:30;;;;;;;;;;;;;;;11.34;78.03;96403.34;5064492;28;19969;-76
2024/02/21 12:35:56;;;;;;;;;;;;;;;11.30;81.53;96422.38;5064409;28;20143;-76
2024/02/21 12:38:22;;;;;;;;;;;;;;;11.27;82.25;96426.25;5064471;28;19999;-76
2024/02/21 12:40:47;;;;;;;;;;;;;;;11.22;79.01;96504.06;5063848;28;19958;-75
2024/02/21 12:43:13;;;;;;;;;;;;;;;11.18;79.21;96522.06;5064920;28;19949;-74
2024/02/21 12:45:39;;;;;;;;;;;;;;;11.21;80.04;96524.25;5100056;28;19935;-75